Time;durP1;ratioP1;P1;durP2;ratioP2;P2;SDS_P1;SDS_P2;PMS_P1;PMS_P2;Temp;Humidity;BMP_temperature;BMP_pressure;BME280_temperature;BME280_humidity;BME280_pressure;Samples;Min_cycle;Max_cycle;Signal;HPM_P1;HPM_P2
2022/10/27 00:01:14;;;;;;;9.68;3.53;;;;;;;;;;5017042;28;20034;-79
2022/10/27 00:03:40;;;;;;;9.73;3.65;;;;;;;;;;5015747;28;20017;-79
2022/10/27 00:06:06;;;;;;;10.90;3.67;;;;;;;;;;5016624;28;20038;-79
2022/10/27 00:08:32;;;;;;;10.30;4.60;;;;;;;;;;4997346;28;20046;-80
2022/10/27 00:11:00;;;;;;;7.10;3.67;;;;;;;;;;5016989;28;20034;-79
2022/10/27 00:13:26;;;;;;;11.32;3.55;;;;;;;;;;5013907;28;20125;-80
2022/10/27 00:16:04;;;;;;;6.03;3.30;;;;;;;;;;5005454;28;20042;-78
2022/10/27 00:18:30;;;;;;;5.43;3.30;;;;;;;;;;5001858;28;20137;-81
2022/10/27 00:21:03;;;;;;;15.30;3.83;;;;;;;;;;4999182;28;20068;-82
2022/10/27 00:23:30;;;;;;;6.40;2.92;;;;;;;;;;4999230;28;20727;-82
2022/10/27 00:25:56;;;;;;;12.73;3.72;;;;;;;;;;4996956;28;20089;-82
2022/10/27 00:28:22;;;;;;;6.82;3.33;;;;;;;;;;4999904;28;20034;-82
2022/10/27 00:30:47;;;;;;;7.63;3.85;;;;;;;;;;5004746;28;20033;-82
2022/10/27 00:33:12;;;;;;;6.25;3.92;;;;;;;;;;5003720;28;20025;-81
2022/10/27 00:35:38;;;;;;;6.45;3.47;;;;;;;;;;5002259;28;20041;-82
2022/10/27 00:38:03;;;;;;;6.63;3.38;;;;;;;;;;4998307;28;20025;-81
2022/10/27 00:40:35;;;;;;;10.68;4.00;;;;;;;;;;5002522;28;20060;-83
2022/10/27 00:43:00;;;;;;;9.88;4.10;;;;;;;;;;5000857;28;20029;-81
2022/10/27 00:45:26;;;;;;;7.35;4.13;;;;;;;;;;5004113;28;20407;-82
2022/10/27 00:47:51;;;;;;;19.35;3.83;;;;;;;;;;5000932;28;20060;-81
2022/10/27 00:50:20;;;;;;;4.60;3.55;;;;;;;;;;5001624;28;20037;-81
2022/10/27 00:52:50;;;;;;;9.02;3.67;;;;;;;;;;5002672;28;20507;-81
2022/10/27 00:55:19;;;;;;;7.72;3.83;;;;;;;;;;5002061;28;20076;-80
2022/10/27 00:57:47;;;;;;;12.52;3.70;;;;;;;;;;5003623;28;20399;-81
2022/10/27 01:00:14;;;;;;;7.32;3.92;;;;;;;;;;4983193;28;20061;-81
2022/10/27 01:02:39;;;;;;;10.20;3.55;;;;;;;;;;5003206;28;20040;-80
2022/10/27 01:05:18;;;;;;;10.45;4.20;;;;;;;;;;5006170;28;20038;-81
2022/10/27 01:07:45;;;;;;;7.78;3.28;;;;;;;;;;5005099;28;20092;-80
2022/10/27 01:10:12;;;;;;;11.77;3.97;;;;;;;;;;5004672;28;20329;-80
2022/10/27 01:12:38;;;;;;;6.55;3.83;;;;;;;;;;5003107;28;20061;-81
2022/10/27 01:15:03;;;;;;;9.15;3.30;;;;;;;;;;5006457;28;20033;-81
2022/10/27 01:17:47;;;;;;;10.68;4.07;;;;;;;;;;5007128;28;20034;-81
2022/10/27 01:20:30;;;;;;;11.30;4.75;;;;;;;;;;5007000;28;20055;-81
2022/10/27 01:23:29;;;;;;;6.35;3.50;;;;;;;;;;5006832;28;20042;-80
2022/10/27 01:25:57;;;;;;;7.78;3.15;;;;;;;;;;5006119;28;20053;-81
2022/10/27 01:28:29;;;;;;;12.30;3.55;;;;;;;;;;5005357;28;20065;-81
2022/10/27 01:31:00;;;;;;;9.77;3.72;;;;;;;;;;4989157;28;20069;-81
2022/10/27 01:33:36;;;;;;;5.85;3.22;;;;;;;;;;5005363;28;20037;-82
2022/10/27 01:36:32;;;;;;;12.00;4.18;;;;;;;;;;5006800;28;20033;-82
2022/10/27 01:39:14;;;;;;;9.05;3.97;;;;;;;;;;5002102;28;20040;-82
2022/10/27 01:41:45;;;;;;;11.38;4.03;;;;;;;;;;5002035;28;20153;-81
2022/10/27 01:44:17;;;;;;;7.40;3.80;;;;;;;;;;5000867;28;20033;-82
2022/10/27 01:46:43;;;;;;;8.02;4.20;;;;;;;;;;5000419;28;20513;-82
2022/10/27 01:49:08;;;;;;;7.15;4.63;;;;;;;;;;5000246;28;20090;-79
2022/10/27 01:51:34;;;;;;;10.18;3.80;;;;;;;;;;5002452;28;20092;-82
2022/10/27 01:54:00;;;;;;;14.25;4.13;;;;;;;;;;5001422;28;20085;-82
2022/10/27 01:56:42;;;;;;;17.13;4.15;;;;;;;;;;5002755;28;20034;-81
2022/10/27 01:59:31;;;;;;;;;;;;;;;;;;5002709;28;20030;-79
2022/10/27 02:02:27;;;;;;;6.05;4.03;;;;;;;;;;5001669;28;19913;-82
2022/10/27 02:05:03;;;;;;;10.35;3.70;;;;;;;;;;5000196;28;20030;-80
2022/10/27 02:07:41;;;;;;;7.95;3.38;;;;;;;;;;5002266;28;20029;-80
2022/10/27 02:10:19;;;;;;;6.43;3.90;;;;;;;;;;5007631;28;20037;-81
2022/10/27 02:12:45;;;;;;;7.38;3.78;;;;;;;;;;4988213;28;20171;-81
2022/10/27 02:15:17;;;;;;;6.95;3.72;;;;;;;;;;5007604;28;20033;-83
2022/10/27 02:17:44;;;;;;;;;;;;;;;;;;5009659;28;21014;-81
2022/10/27 02:20:19;;;;;;;10.55;3.50;;;;;;;;;;5010516;28;19921;-82
2022/10/27 02:22:46;;;;;;;15.75;4.25;;;;;;;;;;5007340;28;20044;-80
2022/10/27 02:25:11;;;;;;;14.60;4.60;;;;;;;;;;5008467;28;20038;-82
2022/10/27 02:27:40;;;;;;;10.60;4.57;;;;;;;;;;5010224;28;20443;-82
2022/10/27 02:30:06;;;;;;;19.27;4.43;;;;;;;;;;5010108;28;20037;-82
2022/10/27 02:32:32;;;;;;;9.52;5.10;;;;;;;;;;5009948;28;21069;-82
2022/10/27 02:34:59;;;;;;;17.08;4.10;;;;;;;;;;5009857;28;20038;-80
2022/10/27 02:37:30;;;;;;;17.15;4.80;;;;;;;;;;5007318;28;20038;-82
2022/10/27 02:39:56;;;;;;;7.65;4.15;;;;;;;;;;5009603;28;20040;-80
2022/10/27 02:42:21;;;;;;;8.20;4.45;;;;;;;;;;5010325;28;20033;-82
2022/10/27 02:44:46;;;;;;;10.43;4.30;;;;;;;;;;5009685;28;20029;-82
2022/10/27 02:47:12;;;;;;;8.55;3.67;;;;;;;;;;5008169;28;20033;-82
2022/10/27 02:49:37;;;;;;;8.35;3.47;;;;;;;;;;5009019;28;20034;-82
2022/10/27 02:52:03;;;;;;;8.82;4.13;;;;;;;;;;5005917;28;20034;-82
2022/10/27 02:54:30;;;;;;;11.10;4.65;;;;;;;;;;5004581;28;20096;-82
2022/10/27 02:56:55;;;;;;;12.40;4.65;;;;;;;;;;4981937;28;20077;-82
2022/10/27 02:59:20;;;;;;;12.73;4.57;;;;;;;;;;5000740;28;20048;-80
2022/10/27 03:01:46;;;;;;;9.82;4.75;;;;;;;;;;4999973;28;20025;-82
2022/10/27 03:04:11;;;;;;;10.38;4.57;;;;;;;;;;5000564;28;20492;-82
2022/10/27 03:06:36;;;;;;;9.63;4.40;;;;;;;;;;4998174;28;20105;-80
2022/10/27 03:09:02;;;;;;;9.10;4.50;;;;;;;;;;4982757;28;20096;-82
2022/10/27 03:11:27;;;;;;;11.95;4.70;;;;;;;;;;4998792;28;20045;-82
2022/10/27 03:13:52;;;;;;;10.02;4.07;;;;;;;;;;5000480;28;20514;-83
2022/10/27 03:16:18;;;;;;;9.52;4.32;;;;;;;;;;5000084;28;20754;-81
2022/10/27 03:18:43;;;;;;;8.18;3.88;;;;;;;;;;4996814;28;20117;-81
2022/10/27 03:21:08;;;;;;;8.85;4.47;;;;;;;;;;4999531;28;20030;-82
2022/10/27 03:23:34;;;;;;;13.02;4.80;;;;;;;;;;5000669;28;20044;-82
2022/10/27 03:25:59;;;;;;;9.13;4.05;;;;;;;;;;5004191;28;20049;-80
2022/10/27 03:28:25;;;;;;;7.70;4.45;;;;;;;;;;4985515;28;20527;-83
2022/10/27 03:30:50;;;;;;;11.70;3.65;;;;;;;;;;5004745;28;20423;-81
2022/10/27 03:33:16;;;;;;;7.07;4.32;;;;;;;;;;5001690;28;20032;-84
2022/10/27 03:35:41;;;;;;;17.40;4.65;;;;;;;;;;4997910;28;20030;-83
2022/10/27 03:38:07;;;;;;;7.22;4.15;;;;;;;;;;5001652;28;20460;-83
2022/10/27 03:40:33;;;;;;;9.27;4.47;;;;;;;;;;5007045;28;20495;-79
2022/10/27 03:42:59;;;;;;;7.03;4.13;;;;;;;;;;5007682;28;20026;-80
2022/10/27 03:45:25;;;;;;;10.02;4.55;;;;;;;;;;5017118;28;20093;-80
2022/10/27 03:48:00;;;;;;;13.95;5.20;;;;;;;;;;5006714;28;20061;-79
2022/10/27 03:50:26;;;;;;;7.78;4.80;;;;;;;;;;4999606;28;20029;-82
2022/10/27 03:52:51;;;;;;;7.85;4.32;;;;;;;;;;4999060;28;20108;-81
2022/10/27 03:55:17;;;;;;;6.03;4.28;;;;;;;;;;4997436;28;20041;-81
2022/10/27 03:57:42;;;;;;;14.50;4.68;;;;;;;;;;4998210;28;20513;-81
2022/10/27 04:00:08;;;;;;;6.95;4.40;;;;;;;;;;4998604;28;20828;-81
2022/10/27 04:02:33;;;;;;;7.78;5.10;;;;;;;;;;4997527;28;20029;-82
2022/10/27 04:04:59;;;;;;;10.00;5.05;;;;;;;;;;5006641;28;20041;-81
2022/10/27 04:07:24;;;;;;;12.48;4.43;;;;;;;;;;5007198;28;20026;-80
2022/10/27 04:09:49;;;;;;;8.00;3.90;;;;;;;;;;5019397;28;20048;-80
2022/10/27 04:12:15;;;;;;;11.27;4.55;;;;;;;;;;5024079;28;20049;-80
2022/10/27 04:14:40;;;;;;;10.48;4.65;;;;;;;;;;5002443;28;20143;-80
2022/10/27 04:17:05;;;;;;;11.85;4.70;;;;;;;;;;5002682;28;20484;-80
2022/10/27 04:19:31;;;;;;;12.18;4.43;;;;;;;;;;5004964;28;20034;-81
2022/10/27 04:21:56;;;;;;;17.00;4.70;;;;;;;;;;5002900;28;20048;-81
2022/10/27 04:24:21;;;;;;;8.00;4.63;;;;;;;;;;5009899;28;20669;-80
2022/10/27 04:26:47;;;;;;;8.75;4.38;;;;;;;;;;5011343;28;20053;-82
2022/10/27 04:29:12;;;;;;;6.75;4.07;;;;;;;;;;5007353;28;20068;-83
2022/10/27 04:31:37;;;;;;;10.05;4.13;;;;;;;;;;5006619;28;20045;-83
2022/10/27 04:34:03;;;;;;;12.85;4.28;;;;;;;;;;5004250;28;20092;-82
2022/10/27 04:36:28;;;;;;;8.18;4.28;;;;;;;;;;5006957;28;20097;-82
2022/10/27 04:38:53;;;;;;;10.23;4.70;;;;;;;;;;5007005;28;20037;-81
2022/10/27 04:41:19;;;;;;;10.70;5.10;;;;;;;;;;5005584;28;20092;-82
2022/10/27 04:43:48;;;;;;;9.00;4.35;;;;;;;;;;5006346;28;20018;-80
2022/10/27 04:46:13;;;;;;;9.35;4.75;;;;;;;;;;5005746;28;20045;-82
2022/10/27 04:48:39;;;;;;;7.38;4.78;;;;;;;;;;5003053;28;20034;-82
2022/10/27 04:51:04;;;;;;;8.45;4.07;;;;;;;;;;5004135;28;20033;-81
2022/10/27 04:53:29;;;;;;;9.30;4.18;;;;;;;;;;5005805;28;20030;-82
2022/10/27 04:55:55;;;;;;;6.68;4.15;;;;;;;;;;5005265;28;20377;-82
2022/10/27 04:58:20;;;;;;;8.27;3.83;;;;;;;;;;5006243;28;20030;-83
2022/10/27 05:00:47;;;;;;;7.00;4.32;;;;;;;;;;4983337;28;20033;-81
2022/10/27 05:03:13;;;;;;;9.02;4.88;;;;;;;;;;5003350;28;20034;-81
2022/10/27 05:05:38;;;;;;;6.22;4.40;;;;;;;;;;4995930;28;20485;-81
2022/10/27 05:08:04;;;;;;;9.65;5.03;;;;;;;;;;4996038;28;20029;-81
2022/10/27 05:10:31;;;;;;;7.45;4.53;;;;;;;;;;4997343;28;20097;-80
2022/10/27 05:12:56;;;;;;;8.30;4.50;;;;;;;;;;4998592;28;20985;-82
2022/10/27 05:15:22;;;;;;;10.15;4.35;;;;;;;;;;4987670;28;20030;-82
2022/10/27 05:17:47;;;;;;;12.13;4.85;;;;;;;;;;5012675;28;20048;-81
2022/10/27 05:20:13;;;;;;;7.00;4.95;;;;;;;;;;5014892;28;20396;-81
2022/10/27 05:22:39;;;;;;;10.05;4.47;;;;;;;;;;5006364;28;20061;-81
2022/10/27 05:25:08;;;;;;;7.60;4.78;;;;;;;;;;5014343;28;20026;-82
2022/10/27 05:27:34;;;;;;;11.18;4.75;;;;;;;;;;5014656;28;20100;-83
2022/10/27 05:29:59;;;;;;;6.70;4.43;;;;;;;;;;5015931;28;20460;-82
2022/10/27 05:32:25;;;;;;;16.08;5.03;;;;;;;;;;5016437;28;20029;-82
2022/10/27 05:34:50;;;;;;;11.48;5.18;;;;;;;;;;4998238;28;20030;-81
2022/10/27 05:37:15;;;;;;;8.90;4.93;;;;;;;;;;5014681;28;20029;-82
2022/10/27 05:39:41;;;;;;;12.52;5.15;;;;;;;;;;5014072;28;20018;-82
2022/10/27 05:42:06;;;;;;;11.63;4.88;;;;;;;;;;5015366;28;20473;-82
2022/10/27 05:44:32;;;;;;;11.05;4.72;;;;;;;;;;5012442;28;20033;-81
2022/10/27 05:46:57;;;;;;;11.80;6.10;;;;;;;;;;5007124;28;20688;-81
2022/10/27 05:49:22;;;;;;;10.60;4.95;;;;;;;;;;5006060;28;20530;-82
2022/10/27 05:51:49;;;;;;;10.43;5.35;;;;;;;;;;5005554;28;20025;-81
2022/10/27 05:54:14;;;;;;;13.45;6.03;;;;;;;;;;5007237;28;20026;-84
2022/10/27 05:56:39;;;;;;;7.80;4.50;;;;;;;;;;5005895;28;20108;-84
2022/10/27 05:59:05;;;;;;;11.07;5.22;;;;;;;;;;4992335;28;20121;-83
2022/10/27 06:01:30;;;;;;;13.05;5.57;;;;;;;;;;5008778;28;20564;-82
2022/10/27 06:03:56;;;;;;;9.52;5.30;;;;;;;;;;5003801;28;20019;-83
2022/10/27 06:06:21;;;;;;;12.13;5.90;;;;;;;;;;5002398;28;20034;-83
2022/10/27 06:08:46;;;;;;;14.45;5.93;;;;;;;;;;5017270;28;20025;-83
2022/10/27 06:11:12;;;;;;;11.85;5.28;;;;;;;;;;5008960;28;20044;-83
2022/10/27 06:13:37;;;;;;;12.52;5.22;;;;;;;;;;5014065;28;20121;-83
2022/10/27 06:16:02;;;;;;;15.68;6.07;;;;;;;;;;5012743;28;20049;-85
2022/10/27 06:18:28;;;;;;;16.90;6.63;;;;;;;;;;5016424;28;20032;-83
2022/10/27 06:20:53;;;;;;;11.23;6.43;;;;;;;;;;5015144;28;20116;-83
2022/10/27 06:23:19;;;;;;;16.80;6.28;;;;;;;;;;5007675;28;20057;-84
2022/10/27 06:25:44;;;;;;;15.10;6.38;;;;;;;;;;5014343;28;20072;-83
2022/10/27 06:28:09;;;;;;;11.32;5.60;;;;;;;;;;5010564;28;20046;-84
2022/10/27 06:30:35;;;;;;;10.45;6.45;;;;;;;;;;4996608;28;20081;-85
2022/10/27 06:33:00;;;;;;;17.58;6.28;;;;;;;;;;4996622;28;20041;-85
2022/10/27 06:35:26;;;;;;;10.10;5.95;;;;;;;;;;5011961;28;20030;-84
2022/10/27 06:37:51;;;;;;;10.68;6.03;;;;;;;;;;5004024;28;20026;-85
2022/10/27 06:40:18;;;;;;;13.27;6.00;;;;;;;;;;4995642;28;20033;-84
2022/10/27 06:42:45;;;;;;;12.15;5.38;;;;;;;;;;5003437;28;20041;-84
2022/10/27 06:47:38;;;;;;;12.60;4.88;;;;;;;;;;5009375;28;20097;-85
2022/10/27 06:50:05;;;;;;;13.35;4.75;;;;;;;;;;5022315;28;20021;-84
2022/10/27 06:52:35;;;;;;;12.25;5.00;;;;;;;;;;5033412;28;20038;-86
2022/10/27 06:55:00;;;;;;;9.02;4.57;;;;;;;;;;5022521;28;20025;-84
2022/10/27 06:57:25;;;;;;;13.63;4.90;;;;;;;;;;5021313;28;20033;-84
2022/10/27 06:59:51;;;;;;;7.25;4.53;;;;;;;;;;5019374;28;20026;-85
2022/10/27 07:02:16;;;;;;;14.75;4.38;;;;;;;;;;5002823;28;20036;-85
2022/10/27 07:04:41;;;;;;;13.05;5.00;;;;;;;;;;5019640;28;20018;-83
2022/10/27 07:07:07;;;;;;;10.35;5.25;;;;;;;;;;5018165;28;20102;-84
2022/10/27 07:09:32;;;;;;;6.38;3.78;;;;;;;;;;5015863;28;20180;-85
2022/10/27 07:11:57;;;;;;;10.65;4.05;;;;;;;;;;5026312;28;20431;-83
2022/10/27 07:14:23;;;;;;;11.93;4.25;;;;;;;;;;5032435;28;20762;-83
2022/10/27 07:16:48;;;;;;;8.93;4.35;;;;;;;;;;5015835;28;20025;-84
2022/10/27 07:19:13;;;;;;;18.15;3.95;;;;;;;;;;5009252;28;20030;-83
2022/10/27 07:21:39;;;;;;;12.23;4.93;;;;;;;;;;4995636;28;20045;-85
2022/10/27 07:24:04;;;;;;;9.52;4.57;;;;;;;;;;4993989;28;20026;-84
2022/10/27 07:26:30;;;;;;;14.07;4.47;;;;;;;;;;5017565;28;20064;-84
2022/10/27 07:28:55;;;;;;;13.05;3.67;;;;;;;;;;5019136;28;20021;-86
2022/10/27 07:31:20;;;;;;;11.52;4.10;;;;;;;;;;5019412;28;20072;-85
2022/10/27 07:33:46;;;;;;;11.40;3.83;;;;;;;;;;5018491;28;20029;-87
2022/10/27 07:36:11;;;;;;;12.18;3.92;;;;;;;;;;5016387;28;20022;-84
2022/10/27 07:38:37;;;;;;;11.40;3.92;;;;;;;;;;5001254;28;20476;-84
2022/10/27 07:41:03;;;;;;;14.70;4.47;;;;;;;;;;5018155;28;20030;-84
2022/10/27 07:43:28;;;;;;;12.55;4.13;;;;;;;;;;5002705;28;20029;-84
2022/10/27 07:45:54;;;;;;;11.93;4.72;;;;;;;;;;5018807;28;20029;-84
2022/10/27 07:48:19;;;;;;;14.63;4.07;;;;;;;;;;5020842;28;20588;-84
2022/10/27 07:50:44;;;;;;;11.75;3.97;;;;;;;;;;5003765;28;20116;-84
2022/10/27 07:53:11;;;;;;;16.83;4.28;;;;;;;;;;5003650;28;20105;-83
2022/10/27 07:55:36;;;;;;;12.63;3.83;;;;;;;;;;5020577;28;20034;-83
2022/10/27 07:58:10;;;;;;;11.73;4.28;;;;;;;;;;5013392;28;20033;-84
2022/10/27 08:00:37;;;;;;;8.27;3.97;;;;;;;;;;5002748;28;20021;-84
2022/10/27 08:03:05;;;;;;;6.70;3.80;;;;;;;;;;5002519;28;20022;-83
2022/10/27 08:05:35;;;;;;;7.82;3.95;;;;;;;;;;5021319;28;20116;-84
2022/10/27 08:08:05;;;;;;;6.68;3.90;;;;;;;;;;5021240;28;20029;-84
2022/10/27 08:10:32;;;;;;;7.65;3.65;;;;;;;;;;5021118;28;20026;-84
2022/10/27 08:12:58;;;;;;;8.80;3.35;;;;;;;;;;5004503;28;20025;-84
2022/10/27 08:15:23;;;;;;;11.82;4.20;;;;;;;;;;5020867;28;20045;-84
2022/10/27 08:17:54;;;;;;;8.52;3.70;;;;;;;;;;5002065;28;20108;-84
2022/10/27 08:20:20;;;;;;;11.30;4.15;;;;;;;;;;5001059;28;20080;-84
2022/10/27 08:22:45;;;;;;;8.10;3.90;;;;;;;;;;5002917;28;20099;-84
2022/10/27 08:25:11;;;;;;;7.63;3.55;;;;;;;;;;5020115;28;20427;-84
2022/10/27 08:27:36;;;;;;;7.72;4.05;;;;;;;;;;5018903;28;20117;-86
2022/10/27 08:30:05;;;;;;;11.60;4.20;;;;;;;;;;5020142;28;20033;-84
2022/10/27 08:32:30;;;;;;;7.35;3.80;;;;;;;;;;5019753;28;20498;-84
2022/10/27 08:34:55;;;;;;;12.07;4.07;;;;;;;;;;5019376;28;20018;-85
2022/10/27 08:37:21;;;;;;;7.50;3.88;;;;;;;;;;5018808;28;20033;-85
2022/10/27 08:39:46;;;;;;;8.65;4.18;;;;;;;;;;4998205;28;20034;-85
2022/10/27 08:42:23;;;;;;;7.82;3.50;;;;;;;;;;4999584;28;20042;-85
2022/10/27 08:45:17;;;;;;;6.72;3.58;;;;;;;;;;4988872;28;20026;-85
2022/10/27 08:47:43;;;;;;;8.27;3.10;;;;;;;;;;5003207;28;20041;-85
2022/10/27 08:50:21;;;;;;;8.25;3.45;;;;;;;;;;5008367;28;20528;-84
2022/10/27 08:53:11;;;;;;;6.47;3.03;;;;;;;;;;5029674;28;20398;-84
2022/10/27 08:55:50;;;;;;;7.15;3.75;;;;;;;;;;5029120;28;20046;-85
2022/10/27 08:58:32;;;;;;;10.15;4.00;;;;;;;;;;5004309;28;20037;-84
2022/10/27 09:01:17;;;;;;;6.13;3.28;;;;;;;;;;5031343;28;20663;-83
2022/10/27 09:04:10;;;;;;;10.07;3.55;;;;;;;;;;5016897;28;20029;-84
2022/10/27 09:07:09;;;;;;;13.88;3.88;;;;;;;;;;5031567;28;20041;-82
2022/10/27 09:09:47;;;;;;;8.80;3.58;;;;;;;;;;5003861;28;20037;-83
2022/10/27 09:12:20;;;;;;;11.52;3.70;;;;;;;;;;5005550;28;20026;-83
2022/10/27 09:15:04;;;;;;;9.80;4.47;;;;;;;;;;5006073;28;20026;-82
2022/10/27 09:18:01;;;;;;;9.52;4.00;;;;;;;;;;5024882;28;20498;-83
2022/10/27 09:20:32;;;;;;;10.02;3.50;;;;;;;;;;5002615;28;20152;-84
2022/10/27 09:23:00;;;;;;;5.80;3.72;;;;;;;;;;5023005;28;20488;-84
2022/10/27 09:25:27;;;;;;;9.93;3.83;;;;;;;;;;5016744;28;20508;-84
2022/10/27 09:27:55;;;;;;;6.95;4.13;;;;;;;;;;4986560;28;20113;-83
2022/10/27 09:30:20;;;;;;;21.88;4.43;;;;;;;;;;5002132;28;20419;-84
2022/10/27 09:32:52;;;;;;;7.28;4.25;;;;;;;;;;5002705;28;20022;-83
2022/10/27 09:35:23;;;;;;;8.13;3.60;;;;;;;;;;5010058;28;20042;-86
2022/10/27 09:37:49;;;;;;;10.98;4.10;;;;;;;;;;5003213;28;20125;-84
2022/10/27 09:40:20;;;;;;;18.05;3.60;;;;;;;;;;5036540;28;20033;-85
2022/10/27 09:42:52;;;;;;;10.65;3.70;;;;;;;;;;5043240;28;20391;-83
2022/10/27 09:45:21;;;;;;;10.43;3.25;;;;;;;;;;5034703;28;20021;-83
2022/10/27 09:47:56;;;;;;;7.63;3.97;;;;;;;;;;5024744;28;20484;-84
2022/10/27 09:50:35;;;;;;;9.10;3.45;;;;;;;;;;5022268;28;20036;-84
2022/10/27 09:53:01;;;;;;;8.15;3.80;;;;;;;;;;5023446;28;20044;-83
2022/10/27 09:55:48;;;;;;;7.10;3.28;;;;;;;;;;5022314;28;20034;-83
2022/10/27 09:58:13;;;;;;;11.68;3.63;;;;;;;;;;5024774;28;20060;-84
2022/10/27 10:00:40;;;;;;;7.45;3.42;;;;;;;;;;5024614;28;20336;-84
2022/10/27 10:03:18;;;;;;;9.65;4.57;;;;;;;;;;5030700;28;20050;-84
2022/10/27 10:05:46;;;;;;;7.40;3.92;;;;;;;;;;5033005;28;20030;-85
2022/10/27 10:08:21;;;;;;;11.70;4.32;;;;;;;;;;5011628;28;20028;-84
2022/10/27 10:11:04;;;;;;;9.27;4.25;;;;;;;;;;5021794;28;20097;-84
2022/10/27 10:13:36;;;;;;;7.00;3.60;;;;;;;;;;5015800;28;20496;-84
2022/10/27 10:16:07;;;;;;;;;;;;;;;;;;5018017;28;20046;-84
2022/10/27 10:18:34;;;;;;;11.85;4.13;;;;;;;;;;5002274;28;20217;-84
2022/10/27 10:21:02;;;;;;;8.10;3.50;;;;;;;;;;5025784;28;20026;-84
2022/10/27 10:23:31;;;;;;;7.88;3.70;;;;;;;;;;5028235;28;21033;-84
2022/10/27 10:25:59;;;;;;;9.25;3.65;;;;;;;;;;5028235;28;20026;-83
2022/10/27 10:28:27;;;;;;;7.85;3.80;;;;;;;;;;5032887;28;20048;-83
2022/10/27 10:30:54;;;;;;;12.90;4.40;;;;;;;;;;5035030;28;20025;-84
2022/10/27 10:33:23;;;;;;;7.35;3.40;;;;;;;;;;5010194;28;20114;-85
2022/10/27 10:35:50;;;;;;;7.20;3.38;;;;;;;;;;5021845;28;20048;-86
2022/10/27 10:38:29;;;;;;;9.60;3.30;;;;;;;;;;4995275;28;20057;-83
2022/10/27 10:41:19;;;;;;;5.97;2.67;;;;;;;;;;5013994;28;20034;-84
2022/10/27 10:43:44;;;;;;;9.43;3.13;;;;;;;;;;5015672;28;20153;-84
2022/10/27 10:46:21;;;;;;;9.90;2.58;;;;;;;;;;4993797;28;20046;-83
2022/10/27 10:48:52;;;;;;;9.65;2.45;;;;;;;;;;5011615;28;20418;-83
2022/10/27 10:51:30;;;;;;;7.38;2.72;;;;;;;;;;5014506;28;20056;-84
2022/10/27 10:54:07;;;;;;;10.80;3.15;;;;;;;;;;4992189;28;20408;-84
2022/10/27 10:56:34;;;;;;;12.63;2.65;;;;;;;;;;4992677;28;20038;-83
2022/10/27 10:59:08;;;;;;;3.97;2.33;;;;;;;;;;5013206;28;20081;-83
2022/10/27 11:01:52;;;;;;;7.30;2.95;;;;;;;;;;4994974;28;20029;-84
2022/10/27 11:04:22;;;;;;;7.45;2.53;;;;;;;;;;5015808;28;20029;-83
2022/10/27 11:07:06;;;;;;;8.27;3.35;;;;;;;;;;5015128;28;20029;-83
2022/10/27 11:09:51;;;;;;;13.88;3.03;;;;;;;;;;4980724;28;20022;-84
2022/10/27 11:12:35;;;;;;;9.20;2.63;;;;;;;;;;4985041;28;20058;-83
2022/10/27 11:15:19;;;;;;;8.10;3.03;;;;;;;;;;4998280;28;20017;-83
2022/10/27 11:17:47;;;;;;;4.35;2.65;;;;;;;;;;5018224;28;20037;-83
2022/10/27 11:20:29;;;;;;;10.15;3.03;;;;;;;;;;4999494;28;20121;-84
2022/10/27 11:22:57;;;;;;;14.43;2.83;;;;;;;;;;4999164;28;20083;-83
2022/10/27 11:25:31;;;;;;;9.60;2.80;;;;;;;;;;5021351;28;20136;-83
2022/10/27 11:28:14;;;;;;;6.00;2.55;;;;;;;;;;5023867;28;20392;-84
2022/10/27 11:30:49;;;;;;;10.20;2.75;;;;;;;;;;5023860;28;20044;-83
2022/10/27 11:33:23;;;;;;;7.50;2.72;;;;;;;;;;5004699;28;20044;-83
2022/10/27 11:36:01;;;;;;;4.75;2.78;;;;;;;;;;5021529;28;20117;-84
2022/10/27 11:38:46;;;;;;;7.78;2.70;;;;;;;;;;5005175;28;20025;-84
2022/10/27 11:41:20;;;;;;;8.40;2.83;;;;;;;;;;5021917;28;20049;-83
2022/10/27 11:44:03;;;;;;;9.00;2.45;;;;;;;;;;5022968;28;20036;-83
2022/10/27 11:46:40;;;;;;;9.88;2.90;;;;;;;;;;5019344;28;20057;-82
2022/10/27 11:49:30;;;;;;;7.85;2.63;;;;;;;;;;5017592;28;20085;-85
2022/10/27 11:52:17;;;;;;;8.13;2.30;;;;;;;;;;5012805;28;20030;-83
2022/10/27 11:54:42;;;;;;;20.58;2.72;;;;;;;;;;5015608;28;20075;-83
2022/10/27 11:57:21;;;;;;;10.18;2.70;;;;;;;;;;5002281;28;20029;-84
2022/10/27 12:00:10;;;;;;;5.82;1.98;;;;;;;;;;5000380;28;20036;-83
2022/10/27 12:03:13;;;;;;;15.20;2.33;;;;;;;;;;5023216;28;20025;-83
2022/10/27 12:05:41;;;;;;;;;;;;;;;;;;5022902;28;20030;-83
2022/10/27 12:08:19;;;;;;;5.55;2.10;;;;;;;;;;4999711;28;19939;-83
2022/10/27 12:11:01;;;;;;;7.90;2.22;;;;;;;;;;5023876;28;20068;-83
2022/10/27 12:14:06;;;;;;;6.07;2.33;;;;;;;;;;5007185;28;20034;-84
2022/10/27 12:16:50;;;;;;;6.63;2.28;;;;;;;;;;5021527;28;20056;-83
2022/10/27 12:19:28;;;;;;;10.20;2.60;;;;;;;;;;5004093;28;20097;-84
2022/10/27 12:22:17;;;;;;;5.22;2.47;;;;;;;;;;5003879;28;20069;-83
2022/10/27 12:24:46;;;;;;;6.90;2.55;;;;;;;;;;4999079;28;20093;-83
2022/10/27 12:27:21;;;;;;;7.50;3.10;;;;;;;;;;5023083;28;20042;-84
2022/10/27 12:29:49;;;;;;;18.67;2.90;;;;;;;;;;5015853;28;20037;-83
2022/10/27 12:32:25;;;;;;;4.75;2.38;;;;;;;;;;5017288;28;20028;-84
2022/10/27 12:35:19;;;;;;;6.10;2.15;;;;;;;;;;5015926;28;20040;-84
2022/10/27 12:37:57;;;;;;;9.95;2.22;;;;;;;;;;4987706;28;20022;-85
2022/10/27 12:40:23;;;;;;;13.10;2.58;;;;;;;;;;5000277;28;20499;-83
2022/10/27 12:43:08;;;;;;;3.95;1.95;;;;;;;;;;5018531;28;20080;-84
2022/10/27 12:46:05;;;;;;;12.00;2.22;;;;;;;;;;4997803;28;20495;-83
2022/10/27 12:48:34;;;;;;;11.15;2.40;;;;;;;;;;5000198;23;20096;-85
2022/10/27 12:51:28;;;;;;;11.20;2.33;;;;;;;;;;5003353;28;20125;-87
2022/10/27 12:54:21;;;;;;;5.40;2.50;;;;;;;;;;5012836;28;20113;-87
2022/10/27 12:57:11;;;;;;;4.68;1.73;;;;;;;;;;4985602;28;20026;-86
2022/10/27 12:59:49;;;;;;;4.55;1.98;;;;;;;;;;4969140;28;20610;-87
2022/10/27 13:02:16;;;;;;;6.80;2.20;;;;;;;;;;4985057;28;20034;-86
2022/10/27 13:05:09;;;;;;;6.72;2.60;;;;;;;;;;4971679;28;20030;-89
2022/10/27 13:08:00;;;;;;;6.47;2.15;;;;;;;;;;4984878;28;20503;-89
2022/10/27 13:10:36;;;;;;;6.25;2.30;;;;;;;;;;4988327;28;20035;-89
2022/10/27 13:13:16;;;;;;;5.97;2.20;;;;;;;;;;4991578;28;20022;-88
2022/10/27 13:15:52;;;;;;;9.00;2.58;;;;;;;;;;5001923;28;20031;-89
2022/10/27 13:18:33;;;;;;;10.57;2.22;;;;;;;;;;4992703;28;20106;-86
2022/10/27 13:21:27;;;;;;;9.02;2.17;;;;;;;;;;4989540;28;20084;-87
2022/10/27 13:24:08;;;;;;;9.93;2.03;;;;;;;;;;4988255;28;20037;-87
2022/10/27 13:26:54;;;;;;;6.82;2.58;;;;;;;;;;4988416;28;20026;-87
2022/10/27 13:29:44;;;;;;;5.22;1.92;;;;;;;;;;4990325;28;20026;-86
2022/10/27 13:32:31;;;;;;;3.17;1.88;;;;;;;;;;4992521;28;20090;-88
2022/10/27 13:34:59;;;;;;;5.65;2.03;;;;;;;;;;4992496;28;20029;-87
2022/10/27 13:37:58;;;;;;;12.80;2.63;;;;;;;;;;4994483;28;20022;-87
2022/10/27 13:40:28;;;;;;;5.18;2.13;;;;;;;;;;4992284;28;20014;-89
2022/10/27 13:43:22;;;;;;;3.40;1.58;;;;;;;;;;5006248;28;20027;-89
2022/10/27 13:45:49;;;;;;;5.93;2.13;;;;;;;;;;4993632;28;20135;-89
2022/10/27 13:48:15;;;;;;;5.07;2.00;;;;;;;;;;5010355;28;20034;-87
2022/10/27 13:50:49;;;;;;;5.32;1.85;;;;;;;;;;4989863;28;20026;-90
2022/10/27 13:53:14;;;;;;;4.85;1.80;;;;;;;;;;4990133;28;20006;-88
2022/10/27 13:56:19;;;;;;;7.10;2.40;;;;;;;;;;5006622;28;20069;-88
2022/10/27 13:59:09;;;;;;;6.28;1.90;;;;;;;;;;4988228;28;20036;-87
2022/10/27 14:01:45;;;;;;;12.40;2.42;;;;;;;;;;4985659;28;20041;-88
2022/10/27 14:04:28;;;;;;;8.35;2.05;;;;;;;;;;4994234;28;20086;-87
2022/10/27 14:07:06;;;;;;;5.43;2.10;;;;;;;;;;4983166;28;20113;-87
2022/10/27 14:09:47;;;;;;;7.35;2.20;;;;;;;;;;4995034;28;20022;-90
2022/10/27 14:12:34;;;;;;;3.87;1.90;;;;;;;;;;4988768;28;20037;-85
2022/10/27 14:15:23;;;;;;;7.13;2.55;;;;;;;;;;4988708;28;20288;-85
2022/10/27 14:17:50;;;;;;;6.53;1.95;;;;;;;;;;4983030;28;20030;-86
2022/10/27 14:20:28;;;;;;;9.43;2.25;;;;;;;;;;4992657;28;20030;-86
2022/10/27 14:23:14;;;;;;;5.32;2.45;;;;;;;;;;4982804;28;20022;-86
2022/10/27 14:25:39;;;;;;;7.70;1.73;;;;;;;;;;4991518;28;20027;-87
2022/10/27 14:28:15;;;;;;;9.68;2.13;;;;;;;;;;4984985;28;20019;-87
2022/10/27 14:31:00;;;;;;;11.23;1.75;;;;;;;;;;4969003;28;20038;-85
2022/10/27 14:33:26;;;;;;;7.97;2.40;;;;;;;;;;4965082;28;20030;-85
2022/10/27 14:36:32;;;;;;;8.70;2.85;;;;;;;;;;4969583;28;20447;-86
2022/10/27 14:39:06;;;;;;;6.10;2.63;;;;;;;;;;4936916;28;20045;-86
2022/10/27 14:41:34;;;;;;;11.30;2.60;;;;;;;;;;4967404;28;20077;-87
2022/10/27 14:44:02;;;;;;;8.05;2.53;;;;;;;;;;4995786;28;20030;-88
2022/10/27 14:46:39;;;;;;;8.32;2.78;;;;;;;;;;4984972;28;20113;-86
2022/10/27 14:49:08;;;;;;;7.22;2.50;;;;;;;;;;4987678;28;20106;-85
2022/10/27 14:51:36;;;;;;;6.05;2.35;;;;;;;;;;4983591;28;20033;-86
2022/10/27 14:54:03;;;;;;;5.95;2.22;;;;;;;;;;5000737;28;20018;-85
2022/10/27 14:56:31;;;;;;;7.50;2.35;;;;;;;;;;5004173;28;20104;-85
2022/10/27 14:59:01;;;;;;;11.57;2.85;;;;;;;;;;4990790;28;20037;-86
2022/10/27 15:01:27;;;;;;;8.93;2.38;;;;;;;;;;4995129;28;20030;-87
2022/10/27 15:03:53;;;;;;;11.57;2.92;;;;;;;;;;4987188;28;20023;-87
2022/10/27 15:06:19;;;;;;;7.68;3.13;;;;;;;;;;4987411;28;20035;-86